Time;durP1;ratioP1;P1;durP2;ratioP2;P2;SDS_P1;SDS_P2;PMS_P1;PMS_P2;Temp;Humidity;BMP_temperature;BMP_pressure;BME280_temperature;BME280_humidity;BME280_pressure;Samples;Min_cycle;Max_cycle;Signal;HPM_P1;HPM_P2
2021/05/26 00:02:18;;;;;;;4.53;4.12;;;;;;;;;;1715446;82;20991;-65
2021/05/26 00:04:45;;;;;;;4.12;3.83;;;;;;;;;;1707170;82;21632;-68
2021/05/26 00:07:12;;;;;;;4.35;3.95;;;;;;;;;;1695724;84;20916;-64
2021/05/26 00:09:38;;;;;;;5.70;4.30;;;;;;;;;;1684421;84;21004;-68
2021/05/26 00:12:05;;;;;;;6.10;4.00;;;;;;;;;;1675617;84;21599;-65
2021/05/26 00:14:33;;;;;;;4.60;4.20;;;;;;;;;;1691671;84;21526;-66
2021/05/26 00:17:00;;;;;;;5.97;4.17;;;;;;;;;;1677337;84;21020;-65
2021/05/26 00:19:26;;;;;;;4.37;3.98;;;;;;;;;;1706737;84;20996;-66
2021/05/26 00:21:53;;;;;;;4.42;4.00;;;;;;;;;;1703596;84;20972;-68
2021/05/26 00:24:19;;;;;;;4.45;4.05;;;;;;;;;;1769812;81;20987;-65
2021/05/26 00:26:45;;;;;;;5.47;5.08;;;;;;;;;;1705001;84;21858;-68
2021/05/26 00:29:13;;;;;;;5.90;4.20;;;;;;;;;;1706143;84;20916;-64
2021/05/26 00:31:39;;;;;;;4.40;3.98;;;;;;;;;;1724117;82;20979;-65
2021/05/26 00:34:06;;;;;;;5.10;4.70;;;;;;;;;;1702582;82;21024;-64
2021/05/26 00:36:32;;;;;;;4.60;4.20;;;;;;;;;;1696456;83;21582;-65
2021/05/26 00:38:58;;;;;;;8.15;4.45;;;;;;;;;;1698315;81;21118;-65
2021/05/26 00:41:28;;;;;;;4.45;4.05;;;;;;;;;;1724858;83;20873;-67
2021/05/26 00:43:54;;;;;;;6.42;4.67;;;;;;;;;;1699152;81;20931;-66
2021/05/26 00:46:21;;;;;;;5.15;4.65;;;;;;;;;;1730719;81;21046;-64
2021/05/26 00:48:48;;;;;;;6.50;5.22;;;;;;;;;;1752078;81;20993;-65
2021/05/26 00:51:14;;;;;;;5.90;5.33;;;;;;;;;;1752015;81;21122;-67
2021/05/26 00:53:40;;;;;;;5.75;5.30;;;;;;;;;;1743476;81;21116;-64
2021/05/26 00:56:06;;;;;;;6.67;5.55;;;;;;;;;;1767158;81;20856;-64
2021/05/26 00:58:34;;;;;;;9.35;5.80;;;;;;;;;;1680663;84;20984;-63
2021/05/26 01:01:00;;;;;;;6.37;5.87;;;;;;;;;;1677225;83;21001;-64
2021/05/26 01:03:28;;;;;;;7.60;7.00;;;;;;;;;;1686391;83;21106;-69
2021/05/26 01:05:55;;;;;;;8.63;7.78;;;;;;;;;;1694834;83;20994;-66
2021/05/26 01:08:21;;;;;;;8.43;7.62;;;;;;;;;;1685819;83;21088;-66
2021/05/26 01:10:49;;;;;;;9.18;8.25;;;;;;;;;;1700661;83;21043;-65
2021/05/26 01:13:19;;;;;;;7.72;7.05;;;;;;;;;;1754572;81;20916;-65
2021/05/26 01:15:46;;;;;;;10.75;7.90;;;;;;;;;;1726754;81;21702;-64
2021/05/26 01:18:31;;;;;;;9.63;8.60;;;;;;;;;;1736095;81;20927;-65
2021/05/26 01:21:01;;;;;;;8.37;7.57;;;;;;;;;;1720804;81;21597;-63
2021/05/26 01:23:28;;;;;;;9.98;8.88;;;;;;;;;;1746682;81;21042;-64
2021/05/26 01:26:01;;;;;;;8.98;8.08;;;;;;;;;;1748951;81;20949;-67
2021/05/26 01:28:28;;;;;;;10.40;9.48;;;;;;;;;;1733414;81;21769;-63
2021/05/26 01:30:56;;;;;;;10.55;8.63;;;;;;;;;;1741717;81;20907;-65
2021/05/26 01:33:25;;;;;;;10.20;8.05;;;;;;;;;;1737448;81;20907;-64
2021/05/26 01:35:51;;;;;;;9.60;8.15;;;;;;;;;;1758233;81;21597;-67
2021/05/26 01:38:19;;;;;;;11.12;8.05;;;;;;;;;;1738021;81;21014;-63
2021/05/26 01:40:45;;;;;;;9.73;8.83;;;;;;;;;;1676505;84;21104;-68
2021/05/26 01:43:14;;;;;;;8.38;7.65;;;;;;;;;;1722093;83;20936;-67
2021/05/26 01:45:41;;;;;;;9.28;7.53;;;;;;;;;;1702029;83;20949;-64
2021/05/26 01:48:07;;;;;;;7.90;7.10;;;;;;;;;;1725405;83;21007;-63
2021/05/26 01:50:35;;;;;;;7.53;6.83;;;;;;;;;;1725311;83;21553;-69
2021/05/26 01:53:05;;;;;;;6.95;6.25;;;;;;;;;;1717275;83;21065;-64
2021/05/26 01:55:35;;;;;;;7.72;7.03;;;;;;;;;;1725127;83;20980;-63
2021/05/26 01:58:01;;;;;;;5.97;5.42;;;;;;;;;;1705014;83;20960;-64
2021/05/26 02:00:29;;;;;;;7.00;4.85;;;;;;;;;;1709061;83;21019;-66
2021/05/26 02:02:55;;;;;;;5.05;4.65;;;;;;;;;;1730912;81;20972;-64
2021/05/26 02:05:21;;;;;;;7.10;4.70;;;;;;;;;;1745469;81;21081;-63
2021/05/26 02:07:52;;;;;;;5.15;3.65;;;;;;;;;;1751929;81;21543;-63
2021/05/26 02:10:18;;;;;;;3.90;3.40;;;;;;;;;;1736864;81;20975;-65
2021/05/26 02:12:48;;;;;;;3.25;2.87;;;;;;;;;;1711620;83;21045;-67
2021/05/26 02:15:15;;;;;;;3.35;2.60;;;;;;;;;;1682010;83;21401;-64
2021/05/26 02:17:42;;;;;;;4.37;2.27;;;;;;;;;;1725454;83;21047;-67
2021/05/26 02:20:11;;;;;;;2.90;2.00;;;;;;;;;;1687015;83;21014;-65
2021/05/26 02:22:39;;;;;;;2.27;1.80;;;;;;;;;;1676165;84;20985;-64
2021/05/26 02:25:07;;;;;;;1.87;1.77;;;;;;;;;;1698268;83;20986;-64
2021/05/26 02:27:34;;;;;;;4.45;1.62;;;;;;;;;;1700354;83;21468;-64
2021/05/26 02:30:01;;;;;;;2.33;1.50;;;;;;;;;;1737397;81;21245;-63
2021/05/26 02:32:27;;;;;;;3.10;2.17;;;;;;;;;;1737528;81;21697;-64
2021/05/26 02:34:53;;;;;;;1.70;1.60;;;;;;;;;;1713738;81;21015;-66
2021/05/26 02:37:20;;;;;;;1.70;1.60;;;;;;;;;;1722590;82;21019;-64
2021/05/26 02:39:49;;;;;;;1.50;1.40;;;;;;;;;;1725565;83;21031;-67
2021/05/26 02:42:15;;;;;;;4.85;1.70;;;;;;;;;;1707076;83;21117;-64
2021/05/26 02:44:42;;;;;;;1.57;1.37;;;;;;;;;;1680211;83;20953;-64
2021/05/26 02:47:10;;;;;;;1.42;1.32;;;;;;;;;;1696557;84;20960;-66
2021/05/26 02:49:39;;;;;;;1.45;1.30;;;;;;;;;;1696534;84;21007;-63
2021/05/26 02:52:06;;;;;;;1.60;1.47;;;;;;;;;;1696601;81;21472;-64
2021/05/26 02:54:32;;;;;;;1.60;1.50;;;;;;;;;;1698748;84;21079;-66
2021/05/26 02:56:59;;;;;;;3.00;1.85;;;;;;;;;;1681824;83;21093;-64
2021/05/26 02:59:36;;;;;;;2.45;1.60;;;;;;;;;;1586765;88;20963;-62
2021/05/26 03:02:13;;;;;;;2.95;1.30;;;;;;;;;;1732660;82;22383;-63
2021/05/26 03:04:41;;;;;;;3.92;1.62;;;;;;;;;;1696806;84;21141;-63
2021/05/26 03:07:09;;;;;;;1.72;1.30;;;;;;;;;;1725513;83;21052;-63
2021/05/26 03:09:37;;;;;;;1.37;1.27;;;;;;;;;;1708936;82;21520;-63
2021/05/26 03:12:04;;;;;;;1.57;1.42;;;;;;;;;;1708656;83;20976;-63
2021/05/26 03:14:33;;;;;;;1.52;1.30;;;;;;;;;;1693997;83;21018;-66
2021/05/26 03:17:01;;;;;;;2.25;1.35;;;;;;;;;;1706152;83;20941;-64
2021/05/26 03:19:28;;;;;;;3.47;1.67;;;;;;;;;;1759333;81;21083;-64
2021/05/26 03:21:56;;;;;;;1.37;1.27;;;;;;;;;;1670068;84;20994;-65
2021/05/26 03:24:40;;;;;;;1.52;1.42;;;;;;;;;;1735440;81;21596;-68
2021/05/26 03:27:07;;;;;;;2.37;2.10;;;;;;;;;;1764365;81;20969;-64
2021/05/26 03:29:33;;;;;;;2.40;2.20;;;;;;;;;;1744675;81;20936;-68
2021/05/26 03:31:59;;;;;;;2.25;1.77;;;;;;;;;;1718006;83;21071;-65
2021/05/26 03:34:26;;;;;;;2.80;2.30;;;;;;;;;;1717358;83;21099;-64
2021/05/26 03:36:54;;;;;;;4.75;3.95;;;;;;;;;;1719934;81;21497;-66
2021/05/26 03:39:21;;;;;;;5.37;4.53;;;;;;;;;;1664285;84;20991;-64
2021/05/26 03:41:47;;;;;;;3.33;3.02;;;;;;;;;;1706999;82;21079;-64
2021/05/26 03:44:14;;;;;;;3.60;2.47;;;;;;;;;;1706352;82;21205;-68
2021/05/26 03:46:40;;;;;;;2.15;2.02;;;;;;;;;;1730063;82;21003;-63
2021/05/26 03:49:08;;;;;;;6.05;2.42;;;;;;;;;;1740538;81;20985;-64
2021/05/26 03:51:35;;;;;;;3.02;2.37;;;;;;;;;;1731653;81;20924;-65
2021/05/26 03:54:02;;;;;;;2.22;1.95;;;;;;;;;;1743999;81;20927;-65
2021/05/26 03:56:30;;;;;;;2.47;2.27;;;;;;;;;;1748787;81;21022;-67
2021/05/26 03:59:01;;;;;;;2.40;1.98;;;;;;;;;;1762409;81;20926;-68
2021/05/26 04:01:31;;;;;;;3.52;2.05;;;;;;;;;;1756666;81;21015;-64
2021/05/26 04:03:57;;;;;;;2.30;2.08;;;;;;;;;;1759269;81;20967;-63
2021/05/26 04:06:24;;;;;;;2.05;1.80;;;;;;;;;;1688125;84;20940;-66
2021/05/26 04:08:51;;;;;;;2.02;1.82;;;;;;;;;;1721855;82;21091;-64
2021/05/26 04:11:18;;;;;;;2.52;2.27;;;;;;;;;;1744438;81;20939;-64
2021/05/26 04:13:52;;;;;;;5.78;2.85;;;;;;;;;;1745457;81;20959;-68
2021/05/26 04:16:20;;;;;;;3.35;2.22;;;;;;;;;;1732605;81;20987;-64
2021/05/26 04:18:52;;;;;;;2.25;1.90;;;;;;;;;;1728405;82;20959;-62
2021/05/26 04:21:18;;;;;;;1.57;1.32;;;;;;;;;;1728774;82;21085;-64
2021/05/26 04:23:45;;;;;;;1.65;1.30;;;;;;;;;;1705906;83;21035;-59
2021/05/26 04:26:12;;;;;;;1.47;1.37;;;;;;;;;;1708312;83;20975;-61
2021/05/26 04:28:42;;;;;;;1.95;1.50;;;;;;;;;;1736545;82;21629;-64
2021/05/26 04:31:06;;;;;;;2.62;1.45;;;;;;;;;;1747266;81;20931;-64
2021/05/26 04:33:33;;;;;;;2.50;1.72;;;;;;;;;;1772508;81;21831;-64
2021/05/26 04:36:01;;;;;;;1.95;1.75;;;;;;;;;;1751726;80;21019;-67
2021/05/26 04:38:27;;;;;;;2.25;1.60;;;;;;;;;;1729302;82;20912;-66
2021/05/26 04:40:53;;;;;;;1.62;1.50;;;;;;;;;;1773888;80;21502;-61
2021/05/26 04:43:20;;;;;;;5.00;1.98;;;;;;;;;;1715939;83;20895;-57
2021/05/26 04:45:47;;;;;;;2.52;1.80;;;;;;;;;;1703158;81;21088;-56
2021/05/26 04:48:14;;;;;;;1.67;1.57;;;;;;;;;;1764640;80;21055;-56
2021/05/26 04:50:40;;;;;;;3.37;1.32;;;;;;;;;;1754416;81;21012;-61
2021/05/26 04:53:06;;;;;;;2.65;1.30;;;;;;;;;;1727976;81;21593;-57
2021/05/26 04:55:33;;;;;;;2.65;1.15;;;;;;;;;;1746393;81;20880;-63
2021/05/26 04:58:00;;;;;;;1.45;1.20;;;;;;;;;;1734518;81;21056;-65
2021/05/26 05:00:26;;;;;;;7.53;6.62;;;;;;;;;;1756093;81;20892;-66
2021/05/26 05:02:53;;;;;;;10.93;9.50;;;;;;;;;;1748779;81;20943;-65
2021/05/26 05:05:20;;;;;;;3.35;3.02;;;;;;;;;;1738586;81;21565;-67
2021/05/26 05:07:47;;;;;;;1.80;1.52;;;;;;;;;;1710606;83;21460;-66
2021/05/26 05:10:14;;;;;;;2.22;1.40;;;;;;;;;;1711322;83;21134;-62
2021/05/26 05:12:40;;;;;;;2.40;1.30;;;;;;;;;;1748793;81;21046;-59
2021/05/26 05:15:08;;;;;;;1.52;1.20;;;;;;;;;;1751141;81;20864;-61
2021/05/26 05:17:34;;;;;;;3.17;1.15;;;;;;;;;;1722904;82;21594;-62
2021/05/26 05:20:03;;;;;;;1.98;1.22;;;;;;;;;;1758310;80;21023;-61
2021/05/26 05:22:30;;;;;;;3.95;1.60;;;;;;;;;;1743619;82;21104;-62
2021/05/26 05:24:56;;;;;;;2.40;1.57;;;;;;;;;;1713205;83;20928;-62
2021/05/26 05:27:22;;;;;;;2.05;1.02;;;;;;;;;;1714103;83;20939;-62
2021/05/26 05:29:49;;;;;;;1.72;0.82;;;;;;;;;;1724372;81;21555;-62
2021/05/26 05:32:15;;;;;;;2.05;1.10;;;;;;;;;;1721024;82;20994;-62
2021/05/26 05:34:42;;;;;;;2.10;1.30;;;;;;;;;;1700928;83;21638;-62
2021/05/26 05:37:09;;;;;;;2.75;1.20;;;;;;;;;;1759055;80;21518;-62
2021/05/26 05:39:36;;;;;;;2.02;1.17;;;;;;;;;;1699160;83;20959;-62
2021/05/26 05:42:02;;;;;;;3.65;1.55;;;;;;;;;;1761687;80;21004;-62
2021/05/26 05:44:28;;;;;;;2.25;1.67;;;;;;;;;;1697134;83;20972;-62
2021/05/26 05:46:55;;;;;;;3.72;2.92;;;;;;;;;;1764505;80;21077;-62
2021/05/26 05:49:21;;;;;;;3.52;1.87;;;;;;;;;;1731050;82;21640;-62
2021/05/26 05:51:47;;;;;;;2.87;1.37;;;;;;;;;;1768020;80;20991;-62
2021/05/26 05:54:13;;;;;;;1.85;1.37;;;;;;;;;;1773906;80;21502;-65
2021/05/26 05:56:39;;;;;;;2.45;1.47;;;;;;;;;;1779513;80;21011;-63
2021/05/26 05:59:05;;;;;;;2.17;1.98;;;;;;;;;;1774772;80;21676;-62
2021/05/26 06:01:32;;;;;;;3.50;1.30;;;;;;;;;;1743549;82;20908;-63
2021/05/26 06:03:58;;;;;;;2.25;1.72;;;;;;;;;;1751654;81;21042;-64
2021/05/26 06:06:25;;;;;;;2.37;1.57;;;;;;;;;;1736943;81;21550;-62
2021/05/26 06:08:51;;;;;;;2.33;1.40;;;;;;;;;;1758111;81;21012;-62
2021/05/26 06:11:18;;;;;;;2.10;1.62;;;;;;;;;;1706597;82;21103;-62
2021/05/26 06:13:48;;;;;;;4.65;1.42;;;;;;;;;;1774852;80;20886;-61
2021/05/26 06:16:13;;;;;;;2.80;1.12;;;;;;;;;;1752807;80;20954;-62
2021/05/26 06:18:39;;;;;;;3.17;1.50;;;;;;;;;;1774924;80;21066;-62
2021/05/26 06:21:05;;;;;;;2.35;1.60;;;;;;;;;;1753216;80;20977;-63
2021/05/26 06:23:31;;;;;;;2.00;1.37;;;;;;;;;;1774903;80;21070;-62
2021/05/26 06:25:57;;;;;;;3.40;1.30;;;;;;;;;;1753533;80;20986;-62
2021/05/26 06:28:24;;;;;;;2.77;1.45;;;;;;;;;;1776275;80;20979;-62
2021/05/26 06:30:50;;;;;;;4.60;1.52;;;;;;;;;;1754797;80;20990;-62
2021/05/26 06:33:16;;;;;;;5.87;4.10;;;;;;;;;;1773187;80;20948;-62
2021/05/26 06:35:42;;;;;;;3.20;1.70;;;;;;;;;;1756511;80;21070;-62
2021/05/26 06:38:08;;;;;;;2.87;1.85;;;;;;;;;;1749305;81;20991;-62
2021/05/26 06:40:35;;;;;;;6.92;1.98;;;;;;;;;;1760926;81;20923;-62
2021/05/26 06:43:02;;;;;;;1.50;1.30;;;;;;;;;;1732486;81;21047;-63
2021/05/26 06:45:28;;;;;;;3.70;1.30;;;;;;;;;;1730927;81;21019;-62
2021/05/26 06:47:54;;;;;;;1.90;1.02;;;;;;;;;;1752428;81;21062;-62
2021/05/26 06:50:22;;;;;;;4.33;1.57;;;;;;;;;;1759076;81;21026;-63
2021/05/26 06:52:49;;;;;;;5.97;2.15;;;;;;;;;;1763712;81;21042;-59
2021/05/26 06:55:15;;;;;;;1.60;1.30;;;;;;;;;;1762765;81;20975;-57
2021/05/26 06:57:42;;;;;;;2.52;1.22;;;;;;;;;;1758787;81;20959;-57
2021/05/26 07:00:10;;;;;;;3.10;1.12;;;;;;;;;;1760317;81;21026;-64
2021/05/26 07:02:36;;;;;;;3.05;1.80;;;;;;;;;;1755692;81;20911;-64
2021/05/26 07:05:04;;;;;;;3.75;2.15;;;;;;;;;;1762848;81;20911;-62
2021/05/26 07:07:31;;;;;;;1.65;1.55;;;;;;;;;;1764094;81;21559;-61
2021/05/26 07:09:57;;;;;;;2.42;1.17;;;;;;;;;;1761122;81;21010;-62
2021/05/26 07:12:24;;;;;;;6.97;1.82;;;;;;;;;;1755938;81;21000;-64
2021/05/26 07:14:51;;;;;;;2.17;1.60;;;;;;;;;;1760906;81;22331;-63
2021/05/26 07:17:17;;;;;;;4.85;1.65;;;;;;;;;;1761923;81;21369;-61
2021/05/26 07:19:43;;;;;;;3.45;1.02;;;;;;;;;;1762210;81;21011;-60
2021/05/26 07:22:09;;;;;;;5.42;1.75;;;;;;;;;;1761780;81;21532;-61
2021/05/26 07:24:36;;;;;;;2.55;1.60;;;;;;;;;;1763429;81;21137;-64
2021/05/26 07:27:03;;;;;;;3.87;1.42;;;;;;;;;;1759860;81;21082;-62
2021/05/26 07:29:30;;;;;;;2.27;1.50;;;;;;;;;;1760730;81;21051;-61
2021/05/26 07:31:56;;;;;;;4.00;1.45;;;;;;;;;;1759658;81;20951;-60
2021/05/26 07:34:22;;;;;;;3.72;1.32;;;;;;;;;;1760812;81;21046;-64
2021/05/26 07:36:48;;;;;;;1.98;1.30;;;;;;;;;;1769370;80;21144;-61
2021/05/26 07:39:15;;;;;;;3.85;1.52;;;;;;;;;;1781504;80;21514;-65
2021/05/26 07:41:41;;;;;;;2.83;1.20;;;;;;;;;;1783621;80;20967;-64
2021/05/26 07:44:08;;;;;;;2.67;1.40;;;;;;;;;;1779901;80;20964;-61
2021/05/26 07:46:34;;;;;;;3.27;1.62;;;;;;;;;;1780511;80;21617;-60
2021/05/26 07:49:00;;;;;;;4.62;1.75;;;;;;;;;;1742021;82;21151;-60
2021/05/26 07:51:29;;;;;;;4.00;1.27;;;;;;;;;;1712242;83;20979;-61
2021/05/26 07:53:55;;;;;;;8.58;1.35;;;;;;;;;;1758836;81;21489;-61
2021/05/26 07:56:22;;;;;;;3.80;1.60;;;;;;;;;;1758644;81;21029;-64
2021/05/26 07:58:48;;;;;;;3.45;1.70;;;;;;;;;;1760137;81;20995;-65
2021/05/26 08:01:14;;;;;;;5.67;1.57;;;;;;;;;;1727782;82;21014;-66
2021/05/26 08:03:40;;;;;;;4.30;1.62;;;;;;;;;;1778911;80;20877;-68
2021/05/26 08:06:07;;;;;;;4.92;1.32;;;;;;;;;;1746090;82;21039;-58
2021/05/26 08:08:35;;;;;;;6.05;1.50;;;;;;;;;;1745854;82;37725;-64
2021/05/26 08:11:04;;;;;;;2.10;1.20;;;;;;;;;;1728024;82;21659;-63
2021/05/26 08:13:32;;;;;;;2.12;1.10;;;;;;;;;;1716392;82;20984;-61
2021/05/26 08:15:58;;;;;;;1.67;1.50;;;;;;;;;;1760820;80;21027;-64
2021/05/26 08:18:24;;;;;;;5.70;1.60;;;;;;;;;;1737971;81;20938;-62
2021/05/26 08:20:52;;;;;;;5.45;1.32;;;;;;;;;;1706548;83;21061;-68
2021/05/26 08:23:18;;;;;;;3.15;1.60;;;;;;;;;;1716748;83;20942;-65
2021/05/26 08:25:45;;;;;;;5.33;1.35;;;;;;;;;;1717518;83;21105;-64
2021/05/26 08:28:10;;;;;;;2.05;1.22;;;;;;;;;;1742403;81;20887;-63
2021/05/26 08:30:38;;;;;;;2.95;1.30;;;;;;;;;;1730180;81;20991;-58
2021/05/26 08:33:04;;;;;;;5.92;5.22;;;;;;;;;;1698474;82;21587;-57
2021/05/26 08:35:30;;;;;;;5.92;2.12;;;;;;;;;;1683104;84;20988;-57
2021/05/26 08:37:56;;;;;;;1.62;1.17;;;;;;;;;;1746713;81;21095;-60
2021/05/26 08:40:22;;;;;;;1.98;1.40;;;;;;;;;;1740788;81;21047;-58
2021/05/26 08:42:48;;;;;;;6.87;1.37;;;;;;;;;;1750887;81;20872;-57
2021/05/26 08:45:15;;;;;;;1.75;1.17;;;;;;;;;;1764019;81;21003;-56
2021/05/26 08:47:42;;;;;;;2.15;1.02;;;;;;;;;;1757106;81;20938;-56
2021/05/26 08:50:09;;;;;;;4.65;1.00;;;;;;;;;;1703615;81;21030;-57
2021/05/26 08:52:35;;;;;;;2.20;1.10;;;;;;;;;;1703615;83;20992;-57
2021/05/26 08:55:01;;;;;;;3.95;1.20;;;;;;;;;;1757119;81;20931;-55
2021/05/26 08:57:27;;;;;;;5.42;1.20;;;;;;;;;;1756220;81;20963;-57
2021/05/26 08:59:53;;;;;;;4.30;2.10;;;;;;;;;;1694059;84;20981;-58
2021/05/26 09:02:19;;;;;;;2.45;1.20;;;;;;;;;;1709823;83;21141;-57
2021/05/26 09:04:45;;;;;;;4.87;1.50;;;;;;;;;;1702434;83;20949;-58
2021/05/26 09:07:17;;;;;;;2.22;1.10;;;;;;;;;;1705112;83;21036;-54
2021/05/26 09:09:52;;;;;;;2.02;1.20;;;;;;;;;;1704708;83;21028;-58
2021/05/26 09:12:31;;;;;;;4.30;1.45;;;;;;;;;;1757299;81;21011;-56
2021/05/26 09:15:18;;;;;;;2.40;1.07;;;;;;;;;;1756854;81;21022;-55
2021/05/26 09:17:51;;;;;;;2.20;1.15;;;;;;;;;;1693900;84;20949;-55
2021/05/26 09:20:33;;;;;;;2.33;0.98;;;;;;;;;;1687281;84;21601;-56
2021/05/26 09:23:19;;;;;;;2.47;1.10;;;;;;;;;;1722021;83;21184;-58
2021/05/26 09:25:50;;;;;;;5.90;1.15;;;;;;;;;;1693222;83;21439;-56
2021/05/26 09:28:31;;;;;;;3.58;1.37;;;;;;;;;;1697668;82;21071;-58
2021/05/26 09:31:05;;;;;;;3.47;1.50;;;;;;;;;;1711420;83;20980;-55
2021/05/26 09:33:44;;;;;;;2.60;1.40;;;;;;;;;;1725447;81;21458;-55
2021/05/26 09:36:14;;;;;;;2.12;0.85;;;;;;;;;;1721515;83;21012;-55
2021/05/26 09:38:47;;;;;;;2.98;1.20;;;;;;;;;;1721543;83;21131;-56
2021/05/26 09:41:19;;;;;;;1.77;0.98;;;;;;;;;;1698046;83;21158;-55
2021/05/26 09:43:48;;;;;;;4.90;1.57;;;;;;;;;;1716724;81;20945;-55
2021/05/26 09:46:21;;;;;;;3.12;1.17;;;;;;;;;;1706021;81;20980;-58
2021/05/26 09:49:20;;;;;;;2.77;1.20;;;;;;;;;;1714760;82;21003;-56
2021/05/26 09:51:55;;;;;;;1.98;1.02;;;;;;;;;;1722354;83;20957;-54
2021/05/26 09:54:31;;;;;;;5.40;1.20;;;;;;;;;;1722032;83;21061;-55
2021/05/26 09:57:05;;;;;;;2.95;1.10;;;;;;;;;;1709465;83;21723;-55
2021/05/26 09:59:32;;;;;;;1.37;0.88;;;;;;;;;;1719779;83;20932;-55
2021/05/26 10:01:59;;;;;;;3.55;1.00;;;;;;;;;;1723400;83;21088;-57
2021/05/26 10:04:26;;;;;;;2.42;1.02;;;;;;;;;;1706024;83;21024;-59
2021/05/26 10:07:11;;;;;;;3.10;0.90;;;;;;;;;;1706876;83;21112;-56
2021/05/26 10:09:39;;;;;;;1.25;0.90;;;;;;;;;;1712026;83;21031;-56
2021/05/26 10:12:09;;;;;;;4.00;0.98;;;;;;;;;;1718364;83;21584;-57
2021/05/26 10:14:37;;;;;;;2.42;1.10;;;;;;;;;;1710749;81;21054;-57
2021/05/26 10:17:05;;;;;;;2.62;1.12;;;;;;;;;;1701547;82;20939;-56
2021/05/26 10:19:32;;;;;;;2.75;0.78;;;;;;;;;;1676727;84;21862;-56
2021/05/26 10:22:00;;;;;;;2.35;0.70;;;;;;;;;;1718376;83;20981;-55
2021/05/26 10:24:27;;;;;;;1.10;0.85;;;;;;;;;;1709882;83;20999;-55
2021/05/26 10:27:02;;;;;;;1.17;0.85;;;;;;;;;;1685074;83;20989;-56
2021/05/26 10:29:33;;;;;;;2.20;0.90;;;;;;;;;;1745300;81;21856;-56
2021/05/26 10:32:04;;;;;;;2.15;1.02;;;;;;;;;;1695333;83;21089;-56
2021/05/26 10:34:47;;;;;;;5.33;0.88;;;;;;;;;;1725176;83;20964;-56
2021/05/26 10:37:16;;;;;;;3.40;3.10;;;;;;;;;;1686570;83;21478;-57
2021/05/26 10:39:42;;;;;;;6.15;1.87;;;;;;;;;;1735399;81;21086;-56
2021/05/26 10:42:24;;;;;;;2.87;1.17;;;;;;;;;;1738477;81;20943;-56
2021/05/26 10:45:07;;;;;;;2.40;0.90;;;;;;;;;;1691159;84;22173;-57
2021/05/26 10:47:41;;;;;;;1.98;0.85;;;;;;;;;;1766202;81;20991;-54
2021/05/26 10:50:15;;;;;;;3.65;1.10;;;;;;;;;;1765973;81;21456;-57
2021/05/26 10:53:01;;;;;;;3.55;1.00;;;;;;;;;;1765203;81;21036;-58
2021/05/26 10:55:38;;;;;;;1.07;0.90;;;;;;;;;;1767197;81;21476;-56
2021/05/26 10:58:26;;;;;;;1.52;0.80;;;;;;;;;;1770152;81;21673;-57
2021/05/26 11:01:04;;;;;;;1.12;0.80;;;;;;;;;;1768622;81;20955;-55
2021/05/26 11:03:34;;;;;;;12.63;1.20;;;;;;;;;;1766084;81;20962;-57
2021/05/26 11:06:19;;;;;;;0.80;0.68;;;;;;;;;;1765013;81;20911;-55
2021/05/26 11:08:47;;;;;;;0.45;0.45;;;;;;;;;;1757653;81;21006;-55
2021/05/26 11:11:38;;;;;;;1.02;0.70;;;;;;;;;;1748769;81;21063;-55
2021/05/26 11:14:14;;;;;;;1.35;0.70;;;;;;;;;;1731274;82;20884;-57
2021/05/26 11:16:50;;;;;;;1.77;1.05;;;;;;;;;;1713525;82;20955;-56
2021/05/26 11:19:22;;;;;;;2.30;0.60;;;;;;;;;;1734767;82;20963;-56
2021/05/26 11:22:04;;;;;;;1.55;0.70;;;;;;;;;;1758035;81;20896;-57
2021/05/26 11:24:32;;;;;;;0.88;0.80;;;;;;;;;;1762907;81;21114;-57
2021/05/26 11:27:01;;;;;;;2.27;0.70;;;;;;;;;;1759408;81;20995;-59
2021/05/26 11:29:32;;;;;;;4.05;0.62;;;;;;;;;;1761684;81;21525;-57
2021/05/26 11:32:10;;;;;;;2.95;0.82;;;;;;;;;;1760735;81;21054;-55
2021/05/26 11:34:39;;;;;;;1.45;0.57;;;;;;;;;;1761736;81;20911;-56
2021/05/26 11:37:05;;;;;;;1.65;0.70;;;;;;;;;;1763039;81;21100;-55
2021/05/26 11:39:34;;;;;;;3.33;0.57;;;;;;;;;;1750726;81;21015;-58
2021/05/26 11:42:17;;;;;;;2.20;0.60;;;;;;;;;;1681936;84;21712;-57
2021/05/26 11:44:45;;;;;;;4.78;0.72;;;;;;;;;;1696057;83;21053;-56
2021/05/26 11:47:11;;;;;;;0.50;0.50;;;;;;;;;;1721252;83;21063;-56
2021/05/26 11:49:42;;;;;;;0.80;0.72;;;;;;;;;;1722137;83;21651;-56
2021/05/26 11:52:10;;;;;;;1.10;0.72;;;;;;;;;;1722439;83;21035;-58
2021/05/26 11:54:56;;;;;;;2.12;0.80;;;;;;;;;;1705936;83;20953;-58
2021/05/26 11:57:36;;;;;;;3.55;2.10;;;;;;;;;;1707949;83;21071;-56
2021/05/26 12:00:04;;;;;;;1.67;1.52;;;;;;;;;;1756572;81;20947;-59
2021/05/26 12:02:33;;;;;;;0.98;0.78;;;;;;;;;;1737203;81;21729;-56
2021/05/26 12:04:59;;;;;;;2.08;0.70;;;;;;;;;;1758939;81;20955;-57
2021/05/26 12:07:26;;;;;;;4.05;1.15;;;;;;;;;;1757747;81;22065;-58
2021/05/26 12:10:00;;;;;;;1.80;0.65;;;;;;;;;;1757571;81;21011;-58
2021/05/26 12:12:27;;;;;;;4.00;0.70;;;;;;;;;;1759432;81;20987;-60
2021/05/26 12:14:53;;;;;;;1.77;0.90;;;;;;;;;;1754512;81;21451;-57
2021/05/26 12:17:20;;;;;;;1.75;0.85;;;;;;;;;;1729171;80;20998;-56
2021/05/26 12:19:47;;;;;;;1.67;0.80;;;;;;;;;;1703813;83;21020;-55
2021/05/26 12:22:19;;;;;;;1.20;0.90;;;;;;;;;;1699783;82;20984;-59
2021/05/26 12:24:54;;;;;;;2.00;0.80;;;;;;;;;;1753317;81;20872;-55
2021/05/26 12:27:42;;;;;;;0.53;0.50;;;;;;;;;;1693325;84;21058;-59
2021/05/26 12:30:17;;;;;;;1.02;0.90;;;;;;;;;;1678028;83;20940;-58
2021/05/26 12:32:44;;;;;;;0.78;0.53;;;;;;;;;;1678898;83;20920;-59
2021/05/26 12:35:13;;;;;;;1.87;0.55;;;;;;;;;;1705701;83;21024;-58
2021/05/26 12:37:43;;;;;;;0.65;0.62;;;;;;;;;;1715987;83;21072;-60
2021/05/26 12:40:13;;;;;;;0.72;0.53;;;;;;;;;;1698601;83;21106;-60
2021/05/26 12:42:40;;;;;;;0.82;0.50;;;;;;;;;;1684150;83;20994;-58
2021/05/26 12:45:18;;;;;;;1.95;0.82;;;;;;;;;;1715271;83;20900;-59
2021/05/26 12:47:44;;;;;;;1.10;0.68;;;;;;;;;;1707710;82;21063;-58
2021/05/26 12:50:16;;;;;;;2.12;0.88;;;;;;;;;;1699671;83;21036;-58
2021/05/26 12:52:43;;;;;;;4.83;1.05;;;;;;;;;;1713218;82;21076;-58
2021/05/26 12:55:11;;;;;;;0.30;0.30;;;;;;;;;;1711604;82;21623;-57
2021/05/26 12:57:42;;;;;;;1.42;0.85;;;;;;;;;;1706379;83;21501;-58
2021/05/26 13:00:15;;;;;;;0.95;0.70;;;;;;;;;;1726180;83;21442;-56
2021/05/26 13:02:43;;;;;;;0.68;0.60;;;;;;;;;;1712494;82;21029;-57
2021/05/26 13:05:12;;;;;;;2.52;0.35;;;;;;;;;;1727230;82;21092;-56
2021/05/26 13:07:41;;;;;;;1.47;0.53;;;;;;;;;;1716460;82;21560;-57
2021/05/26 13:10:26;;;;;;;0.62;0.57;;;;;;;;;;1710382;83;20940;-58
2021/05/26 13:12:56;;;;;;;1.75;0.37;;;;;;;;;;1706239;82;21072;-58
2021/05/26 13:15:29;;;;;;;0.42;0.40;;;;;;;;;;1699454;83;20976;-54
2021/05/26 13:17:58;;;;;;;2.30;0.60;;;;;;;;;;1699685;83;20995;-54
2021/05/26 13:20:31;;;;;;;1.98;0.80;;;;;;;;;;1699259;83;21075;-54
2021/05/26 13:22:58;;;;;;;1.30;0.45;;;;;;;;;;1701957;83;21059;-54
2021/05/26 13:25:26;;;;;;;3.92;0.70;;;;;;;;;;1719828;83;21063;-60
2021/05/26 13:27:52;;;;;;;1.15;0.55;;;;;;;;;;1728384;83;21604;-59
2021/05/26 13:30:21;;;;;;;1.70;0.70;;;;;;;;;;1730866;82;21095;-62
2021/05/26 13:32:47;;;;;;;2.35;0.70;;;;;;;;;;1701005;83;21084;-64
2021/05/26 13:35:13;;;;;;;1.35;0.90;;;;;;;;;;1725579;82;20988;-57
2021/05/26 13:37:40;;;;;;;0.75;0.60;;;;;;;;;;1723254;83;20984;-55
2021/05/26 13:40:08;;;;;;;0.65;0.60;;;;;;;;;;1721172;82;21592;-57
2021/05/26 13:42:36;;;;;;;1.60;0.68;;;;;;;;;;1703708;82;21588;-54
2021/05/26 13:45:04;;;;;;;1.77;0.60;;;;;;;;;;1701984;82;20992;-57
2021/05/26 13:47:31;;;;;;;1.00;0.70;;;;;;;;;;1751690;79;21057;-54
2021/05/26 13:49:57;;;;;;;1.32;0.50;;;;;;;;;;1687631;84;21007;-55
2021/05/26 13:52:25;;;;;;;1.45;0.50;;;;;;;;;;1751075;79;20930;-53
2021/05/26 13:54:51;;;;;;;0.60;0.60;;;;;;;;;;1699096;84;21713;-55
2021/05/26 13:57:17;;;;;;;2.25;0.70;;;;;;;;;;1706071;84;20948;-57
2021/05/26 13:59:44;;;;;;;1.65;0.60;;;;;;;;;;1722603;82;21085;-59
2021/05/26 14:02:11;;;;;;;1.52;0.50;;;;;;;;;;1731563;82;21198;-54
2021/05/26 14:04:37;;;;;;;1.85;0.80;;;;;;;;;;1703136;84;20921;-56
2021/05/26 14:07:03;;;;;;;2.77;0.93;;;;;;;;;;1683406;84;21060;-56
2021/05/26 14:09:30;;;;;;;0.45;0.45;;;;;;;;;;1695590;84;21704;-56
2021/05/26 14:11:57;;;;;;;1.37;0.55;;;;;;;;;;1689554;84;21004;-57
2021/05/26 14:14:25;;;;;;;0.40;0.40;;;;;;;;;;1699802;84;21049;-57
2021/05/26 14:16:51;;;;;;;0.98;0.50;;;;;;;;;;1761605;81;20931;-57
2021/05/26 14:19:17;;;;;;;1.65;0.50;;;;;;;;;;1735159;82;21095;-56
2021/05/26 14:21:43;;;;;;;1.00;0.50;;;;;;;;;;1681705;84;21027;-55
2021/05/26 14:24:10;;;;;;;0.88;0.50;;;;;;;;;;1747549;81;20987;-54
2021/05/26 14:26:38;;;;;;;2.30;0.50;;;;;;;;;;1695881;84;21061;-58
2021/05/26 14:29:05;;;;;;;0.40;0.40;;;;;;;;;;1695731;84;20964;-58
2021/05/26 14:31:32;;;;;;;0.40;0.33;;;;;;;;;;1735336;82;21101;-58
2021/05/26 14:33:58;;;;;;;0.60;0.55;;;;;;;;;;1693221;84;20964;-68
2021/05/26 14:36:27;;;;;;;1.80;1.15;;;;;;;;;;1685670;84;21012;-67
2021/05/26 14:41:24;;;;;;;0.82;0.50;;;;;;;;;;1675298;84;21707;-67
2021/05/26 14:43:51;;;;;;;5.00;0.80;;;;;;;;;;1673455;84;21059;-68
2021/05/26 14:46:18;;;;;;;2.22;0.70;;;;;;;;;;1744179;79;21037;-68
2021/05/26 14:48:44;;;;;;;1.92;0.47;;;;;;;;;;1681181;84;22265;-68
2021/05/26 14:51:11;;;;;;;2.22;0.47;;;;;;;;;;1704413;84;20999;-67
2021/05/26 14:53:40;;;;;;;0.60;0.40;;;;;;;;;;1721253;82;21466;-67
2021/05/26 14:56:08;;;;;;;0.55;0.30;;;;;;;;;;1690847;84;21663;-68